• Join FlightAware (Why Join?)
  • Login
  • US Flag 
09:49AM EDT


 

Airport Tracker/Info


-or-


 

Live Flight TrackerFlight Track Log ✈ N5424D ✈ 27-Apr-2013 ✈ I74 - KHAO

Flight Track Log - Related Links

Times and Time Zones

All times are in EDT time to prevent confusion due to time zone crossing. See the N5424D flight status page for this flight to view local times or setup timezone preferences in your user account.

Time Position Orientation Groundspeed Altitude Reporting Facility
EDT Latitude Longitude Course Direction KTS MPH feet Rate Location/Type
02:57PM 40.0967 -83.7933 228° Southwest 107 123 2,400  Level Indianapolis Center
02:58PM 40.0778 -83.8211 228° Southwest 116 133 3,100 600 Climbing Indianapolis Center
02:59PM 40.0617 -83.8317 207° Southwest 114 131 3,400 600 Climbing Indianapolis Center
02:59PM 40.0472 -83.8389 201° Southwest 116 133 3,700 540 Climbing Indianapolis Center
03:00PM 40.0311 -83.8533 214° Southwest 119 137 4,000 240 Climbing Indianapolis Center
03:00PM 40.0175 -83.8706 224° Southwest 135 155 4,000  Level Indianapolis Center
03:01PM 40.0003 -83.8858 214° Southwest 131 151 4,000  Level Indianapolis Center
03:01PM 39.9836 -83.9042 220° Southwest 148 170 4,000  Level Indianapolis Center
03:02PM 39.9661 -83.9197 214° Southwest 144 166 4,000  Level Indianapolis Center
03:02PM 39.9472 -83.9406 220° Southwest 153 176 4,000  Level Indianapolis Center
03:03PM 39.9278 -83.9597 217° Southwest 149 171 4,000  Level Indianapolis Center
03:03PM 39.9175 -83.9719 222° Southwest 146 168 4,000  Level Indianapolis Center
03:04PM 39.8958 -83.9917 215° Southwest 147 169 4,000  Level Indianapolis Center
03:04PM 39.8839 -84.0031 216° Southwest 152 175 4,000  Level Indianapolis Center
03:05PM 39.8614 -84.0250 217° Southwest 149 171 4,000  Level Indianapolis Center
03:05PM 39.8519 -84.0369 224° Southwest 146 168 4,000  Level Indianapolis Center
03:06PM 39.8294 -84.0581 216° Southwest 147 169 4,000  Level Indianapolis Center
03:06PM 39.8181 -84.0678 213° Southwest 151 174 4,000  Level Indianapolis Center
03:07PM 39.7958 -84.0922 220° Southwest 150 173 4,000  Level Indianapolis Center
03:07PM 39.7814 -84.1064 217° Southwest 144 166 4,000  Level Indianapolis Center
03:08PM 39.7628 -84.1242 216° Southwest 148 170 4,000  Level Indianapolis Center
03:08PM 39.7494 -84.1403 223° Southwest 156 180 4,000 60 Level Indianapolis Center
03:09PM 39.7294 -84.1581 214° Southwest 149 171 4,100  Climbing Indianapolis Center
03:10PM 39.6969 -84.1911 218° Southwest 149 171 4,100 -120 Level Indianapolis Center
03:10PM 39.6836 -84.2050 219° Southwest 150 173 4,000  Descending Indianapolis Center
03:11PM 39.6631 -84.2247 216° Southwest 150 173 4,100  Climbing Indianapolis Center
03:12PM 39.6303 -84.2564 217° Southwest 149 171 4,000 -120 Descending Indianapolis Center
03:12PM 39.6156 -84.2717 219° Southwest 147 169 4,000 60 Level Indianapolis Center
03:13PM 39.5972 -84.2886 215° Southwest 148 170 4,100 60 Climbing Indianapolis Center
03:13PM 39.5814 -84.3053 219° Southwest 147 169 4,100  Level Indianapolis Center
03:14PM 39.5586 -84.3289 219° Southwest 149 171 4,100  Level Indianapolis Center
03:15PM 39.5244 -84.3622 217° Southwest 151 174 4,100 -120 Level Indianapolis Center
03:16PM 39.4914 -84.3942 217° Southwest 149 171 3,900 -360 Descending Indianapolis Center
03:17PM 39.4572 -84.4289 218° Southwest 152 175 3,400 -540 Descending Indianapolis Center
03:19PM 39.4139 -84.4528 218° Southwest  Level FlightAware Approximate
03:26PM 39.3638 -84.5219 218° Southwest  Level Estimated
03:27PM 39.3638 -84.5219 218° Southwest  Level Estimated
03:28PM 39.3638 -84.5219 218° Southwest  Level Estimated
03:29PM 39.3638 -84.5219 218° Southwest  Level Estimated
03:30PM 39.3638 -84.5219 218° Southwest  Level Estimated
03:31PM 39.3638 -84.5219 218° Southwest  Level Estimated
03:32PM 39.3638 -84.5219 218° Southwest  Level Estimated